Timeline UpdatesTrip UpdatesNews PostsPvt PostsTravel TipsAdmin PostsConv PostsFollowed PostsChat RequestsBlog PostsPNR Posts

Disclaimer
Search
 
 
Sat Apr 19, 2014 22:41:30 ISTHomeTrainsΣChainsAtlasPNRForumGalleryNewsFAQTripsMembersLoginFeedback
No Recent News for this Train
Other Trains in the News **new
Latest...
Will be rescheduled conveniently on 03.02.2013 (Sunday)
Sat Feb 02, 2013 (03:29PM)
⇐ Return Journey: Train# 13414

13413/Farakka Express (via Sultanpur)

Oct 15 2013 (7:59PM)
Change Departure Station:
Change Arrival Station:
Post a Train Travel TipPost a Train Travel Tip **new
Post a Comment/Question/Picture/VideoPost a Comment/Question/Picture/Video
Pantry/Catering
✓ Pantry Car Avbl
✓ Catering Avbl
RSA - Rake Sharing
13483/13484/04031/04032
Rake/Coach Composition
LOCO:PARCEL VAN:SLR:UR:UR:UR:UR:UR:B1:A1:PC:S9:S8:S7:S6:S5:S4:S3:S2:S1:UR:SLR;Entry# 234572 Author: ✖★hAяѕH °° °°•ⓥⓘⓡDiesel Philic°°•ⓥⓘⓡ
Loco
LKO WDM 3A/3D [MLDT to LKO] GZB WAP 5/7...
Read more...
[LKO to DLI]
News    PNR    Forum    Time-Table    Availability    Fare Chart    Map    Arr/Dep History    Trips    Gallery    ΣChains    X/O    Timeline    
Travel Time: 17h 10m    37 halts    Distance: 689 km    Avg Speed: 40 km/hr
Type: Mail/Express
Zone: ER/Eastern
Departs @ 19:10 (Avg 26m late)
Platform# ???
 M  T S
Malda Town/MLDT 
Arrives @ 12:20 +1 night (Avg 2h 27m late)
Platform# 2
S T  F 
Jaunpur City/JOP 

37 halts. 155 intermediate Stations between Malda Town and Jaunpur City

Show ALL intermediate Stations  Show Old Time-Table

#CodeStation NameX/OArrivesAvgDepartsAvgHaltPFDay#KmSpeedElevZoneAddress
1MLDT»Malda Town (5)»  -19:10+26--10.06430mERDist - Malda, West Bengal
2NFKNew Farakka Junction (3)X  19:43+3619:53+4110m1135.13432mERDist - Murshidabad, West Bengal
3BHWBarharwa Junction (3)X  20:25+3820:29+394m1153.15636mERBarharwa, Jharkhand
4TPHTinpahar Junction (3)  20:47+4220:48+451m1169.84445mERBamangawan, Jharkhand
5SBGSahibganj Junction (3)X  21:40+4721:50+4610m21107.54338mERSahibganj, Jharkhand
6PPTPirpainti (2)  22:23+5122:24+531m--1131.15653mERBhagalpur, Bihar
7CLGKahalgaon (2)O  22:46+1:0022:47+1:011m11151.45944mERBhagalpur, Bihar
8SBOSabaur (3)  23:10+1:0623:11+1:111m--1174.02442mERSabour, Bihar
9BGPBhagalpur Junction (6)X  23:30+1:0523:40+1:0210m--1181.57949mERBhagalpur, Bihar
10SGGSultanGanj  23:59+1:0800:01+1:082m--1206.44542mERSultanganj, Bihar
11BUPBariarpur (3)  00:25+1:1400:26+1:151m--2224.44542mERMunger, Bihar
12JMPJamalpur Junction (4)X  00:41+1:1500:51+1:1310m--2235.56959mERJamalpur 06344-243101, Bihar
13AHAAbhaipur  01:10+1:1501:11+1:161m--2257.42252mERAbhaipur, Bihar
14KIULKiul Junction (5)  02:15+5402:25+5510m--2280.45853mECRDist. Lakhisarai, Bihar
15BRYABarhiyaO  02:42+1:0202:43+1:041m--2296.85647mECRBarahiya, Bihar
16MKAMokama Junction (3)  03:02+1:1103:04+1:122m--2314.55248mECRPatna, Bihar
17BARHBarh (3)X  03:34+1:0503:36+1:052m--2340.45849mECRBarh, Bihar
18BKPBakhtiyarpur Junction (5)  03:55+1:0403:59+1:034m--2358.79251mECRPatna, Bihar
19FUTFatwa (6)  04:14+1:1404:16+1:142m--2381.71953mECRPatna, Bihar
20PNCPatna Saheb (3)  04:54+5304:56+582m--2393.92959mECRPatna, Bihar
21RJPBRajendra Nagar Bihar (4)  05:11+5605:13+572m--2401.22255mECRPatna 800001, Bihar
22PNBEPatna Junction (10)X  05:20+1:0205:30+1:1410m52403.83857mECRPatna 800001, Bihar
23DNRDanapur (5)X  05:45+1:2505:55+1:3110m--2413.28758mECRKhagaul, Bihar
24BTABihta (2)X  06:07+1:3806:08+1:401m--2430.55862mECRBihta, Bihar
25ARAAra Junction (3)  06:31+1:4006:33+1:412m--2452.79963mECRarrah( 06182-233411), Bihar
26BEABihiya  06:46+1:4806:48+1:522m--2474.18167mECRBehea, Bihar
27RPRRaghunathpur  06:59+1:5707:01+1:592m--2488.98069mECRRaghunathpur, Bihar
28DUREDumraon (3)X  07:13+2:0507:15+2:052m--2504.94970mECRDumraon, Bihar
29BXRBuxar (3)  07:35+2:0207:40+2:005m--2521.28267mECRBuxar, Bihar
30CSAChausa (2)X  07:48+2:0407:50+2:062m--2532.24368mECRState Highway 14, Bihar
31GMRGahmar (2)  08:03+2:0508:04+2:061m--2541.48268mECRDistt: Ghazipur, Uttar Pradesh
32BWHBhadauraX08:10+2:0808:12+2:092m--2549.64769mECRGhazipur, Uttar Pradesh
33DLNDildarnagar Junction (2)  08:22+2:0808:24+2:092m--2557.49072mECRDildarnagar, Uttar Pradesh
34ZNAZamania  08:33+2:1608:35+2:212m--2570.92977mECRGhazipur, Uttar Pradesh
35MGSMughal Sarai Junction (8)  10:05+1:4410:20+1:4715m32615.12583mECRMughalsarai 232101, Uttar Pradesh
36BSBVaranasi Junction (9)  11:00+1:5611:20+2:0420m82631.67382mNRVaranasi, Uttar Pradesh
37JLLJalalGanj (2)  11:52+2:1711:53+2:171m--2670.84587mNRJalalganj Railway Station, Uttar Pradesh
38ZBDZafarabad Junction (4)  12:09+2:2012:10+2:241m--2682.83883mNRNational Highway 56, Uttar Pradesh
39JOP•Jaunpur City (3)•X  12:20+2:2712:22+2:272m22689.17087mNRJaunpur, Uttar Pradesh
40SKNSri Krishna Nagar (2)  12:46+2:3012:47+2:341m12717.04092mNRBadlapur, Uttar Pradesh
41HRPGHarpalGanj (1)X  12:59+2:3513:00+2:421m12725.04090mNRNational Highway 56, Uttar Pradesh
42KEPRKoiripur (1)X  13:16+2:4013:17+2:471m12735.76196mNRNational Highway 56, Uttar Pradesh
43LBALambhua (1)  13:34+2:5713:35+3:011m12752.93897mNRLambhua, Uttar Pradesh
44SLNSultanpur Junction (3)X  14:10+3:0614:20+3:0410m12774.87099mNRSultanpur., Uttar Pradesh
45MFKAMusafir Khana (3)  14:47+3:2114:48+3:251m--2806.467105mNRMusfirKhana, Uttar Pradesh
46NHHNihalgarh (3)  15:05+3:3715:06+3:391m12825.361108mNRJagdishpur, Uttar Pradesh
47AKJAkbarGanj (1)  15:21+3:4415:22+3:471m12840.560112mNRSH 31, Uttar Pradesh
48HGHHaidergarh (2)  15:39+3:5315:40+3:551m--2857.516116mNRState Highway 13, Uttar Pradesh
49LKOLucknow Charbagh (9)X19:10+1:5919:35+1:5925m62914.268123mNRCharbagh, Uttar Pradesh
50ONUnnao Junction (5)X  20:23+2:0620:25+2:062m--2968.826129mNRUnnao, Uttar Pradesh
51CNBKanpur Central (10)X  21:05+2:0921:15+2:1610m62986.287128mNCRKanpur, Uttar Pradesh
52ETWEtawah (5)X  22:51+2:5022:53+2:562m221125.683154mNCRDistt. Etawah, Uttar Pradesh
53SKBShikohabad Junction (4)X  23:33+3:1123:35+3:132m321181.057166mNCRDistrict Firozabad, Uttar Pradesh
54FZDFirozabad (4)  23:56+3:1023:58+3:142m321200.931164mNCRFirozabad, Uttar Pradesh
55TDLTundla Junction (4)X  00:30+3:0900:38+3:138m231217.474167mNCRDistt.Firozabad, Uttar Pradesh
56HRSHathras Junction (3)X  01:17+3:0701:19+3:152m--31265.482183mNCRMahamaya Nagar(05722-242803), Uttar Pradesh
57ALJNAligarh Junction (4)X  01:41+3:2501:46+3:285m331295.687192mNCRAligarh, Uttar Pradesh
58KRJKhurja Junction (4)  02:16+3:1902:21+3:345m--31339.048199mNCRBulandshahr, Uttar Pradesh
59GZBGhaziabad Junction (6)X  03:40+3:3503:42+3:342m331401.745217mNRGhaziabad, Uttar Pradesh
60SBBSahibabad Junction (5)  03:51+3:3503:53+3:352m--31408.438209mNRGhaziabad, Uttar Pradesh
61DSAShahdara Junction (4)  04:04+3:3304:06+3:332m--31415.316212mNRCircular Rd, Delhi NCT
62DLIOld Delhi Junction (16)  04:30+3:29-1031421.6-219mNRNear Chandni Chowk Metro Station, Delhi NCT
Scroll to Top
Scroll to Bottom